sensor_id;sensor_type;location;lat;lon;timestamp;pressure;altitude;pressure_sealevel;temperature;humidity
55590;BME280;41452;42.780;23.116;2023-04-09T00:03:27;94557.88;;;4.53;100.00
55590;BME280;41452;42.780;23.116;2023-04-09T00:05:53;94510.91;;;4.12;100.00
55590;BME280;41452;42.780;23.116;2023-04-09T00:08:19;94560.13;;;4.35;100.00
55590;BME280;41452;42.780;23.116;2023-04-09T00:10:44;94533.00;;;4.01;100.00
55590;BME280;41452;42.780;23.116;2023-04-09T00:13:10;94560.72;;;4.15;100.00
55590;BME280;41452;42.780;23.116;2023-04-09T00:15:36;94561.72;;;4.14;100.00
55590;BME280;41452;42.780;23.116;2023-04-09T00:18:01;94525.63;;;3.83;100.00
55590;BME280;41452;42.780;23.116;2023-04-09T00:20:26;94572.59;;;4.03;100.00
55590;BME280;41452;42.780;23.116;2023-04-09T00:22:52;94538.78;;;3.81;100.00
55590;BME280;41452;42.780;23.116;2023-04-09T00:25:18;94571.19;;;4.00;100.00
55590;BME280;41452;42.780;23.116;2023-04-09T00:27:44;94564.19;;;4.01;100.00
55590;BME280;41452;42.780;23.116;2023-04-09T00:30:09;94568.84;;;4.06;100.00
55590;BME280;41452;42.780;23.116;2023-04-09T00:32:35;94571.06;;;4.09;100.00
55590;BME280;41452;42.780;23.116;2023-04-09T00:35:01;94561.59;;;4.01;100.00
55590;BME280;41452;42.780;23.116;2023-04-09T00:37:26;94569.91;;;4.11;100.00
55590;BME280;41452;42.780;23.116;2023-04-09T00:39:51;94572.50;;;4.11;100.00
55590;BME280;41452;42.780;23.116;2023-04-09T00:42:17;94578.31;;;4.13;100.00
55590;BME280;41452;42.780;23.116;2023-04-09T00:44:42;94543.72;;;3.91;100.00
55590;BME280;41452;42.780;23.116;2023-04-09T00:47:07;94558.19;;;4.00;100.00
55590;BME280;41452;42.780;23.116;2023-04-09T00:49:33;94533.31;;;3.91;100.00
55590;BME280;41452;42.780;23.116;2023-04-09T00:51:58;94565.94;;;4.15;100.00
55590;BME280;41452;42.780;23.116;2023-04-09T00:54:24;94570.75;;;4.18;100.00
55590;BME280;41452;42.780;23.116;2023-04-09T00:56:50;94550.47;;;4.07;100.00
55590;BME280;41452;42.780;23.116;2023-04-09T00:59:15;94565.19;;;4.22;100.00
55590;BME280;41452;42.780;23.116;2023-04-09T01:01:40;94559.63;;;4.25;100.00
55590;BME280;41452;42.780;23.116;2023-04-09T01:04:06;94563.41;;;4.22;100.00
55590;BME280;41452;42.780;23.116;2023-04-09T01:09:33;94567.13;;;4.13;100.00
55590;BME280;41452;42.780;23.116;2023-04-09T01:12:13;94566.25;;;4.06;100.00
55590;BME280;41452;42.780;23.116;2023-04-09T01:14:59;94568.66;;;4.07;100.00
55590;BME280;41452;42.780;23.116;2023-04-09T01:20:02;94572.22;;;4.06;100.00
55590;BME280;41452;42.780;23.116;2023-04-09T01:30:33;94558.72;;;3.96;100.00
55590;BME280;41452;42.780;23.116;2023-04-09T01:32:59;94574.66;;;4.08;100.00
55590;BME280;41452;42.780;23.116;2023-04-09T01:35:27;94552.91;;;3.94;100.00
55590;BME280;41452;42.780;23.116;2023-04-09T01:37:53;94574.47;;;4.09;100.00
55590;BME280;41452;42.780;23.116;2023-04-09T01:40:19;94531.63;;;3.84;100.00
55590;BME280;41452;42.780;23.116;2023-04-09T01:42:45;94574.66;;;4.08;100.00
55590;BME280;41452;42.780;23.116;2023-04-09T01:45:13;94569.38;;;4.01;100.00
55590;BME280;41452;42.780;23.116;2023-04-09T01:47:40;94572.97;;;4.00;100.00
55590;BME280;41452;42.780;23.116;2023-04-09T01:50:05;94570.47;;;3.92;100.00
55590;BME280;41452;42.780;23.116;2023-04-09T01:52:31;94575.59;;;4.00;100.00
55590;BME280;41452;42.780;23.116;2023-04-09T01:54:57;94574.56;;;4.01;100.00
55590;BME280;41452;42.780;23.116;2023-04-09T01:57:22;94569.81;;;4.05;100.00
55590;BME280;41452;42.780;23.116;2023-04-09T01:59:47;94546.13;;;3.93;100.00
55590;BME280;41452;42.780;23.116;2023-04-09T02:02:18;94571.13;;;4.15;100.00
55590;BME280;41452;42.780;23.116;2023-04-09T02:04:50;94567.53;;;4.16;100.00
55590;BME280;41452;42.780;23.116;2023-04-09T02:07:28;94555.59;;;4.22;100.00
55590;BME280;41452;42.780;23.116;2023-04-09T02:10:00;94559.56;;;4.18;100.00
55590;BME280;41452;42.780;23.116;2023-04-09T02:12:29;94560.44;;;4.25;100.00
55590;BME280;41452;42.780;23.116;2023-04-09T02:14:56;94562.47;;;4.30;100.00
55590;BME280;41452;42.780;23.116;2023-04-09T02:17:22;94559.69;;;4.31;100.00
55590;BME280;41452;42.780;23.116;2023-04-09T02:19:47;94535.41;;;4.24;100.00
55590;BME280;41452;42.780;23.116;2023-04-09T02:22:14;94563.47;;;4.29;100.00
55590;BME280;41452;42.780;23.116;2023-04-09T02:24:40;94564.44;;;4.28;100.00
55590;BME280;41452;42.780;23.116;2023-04-09T02:27:06;94550.31;;;4.15;100.00
55590;BME280;41452;42.780;23.116;2023-04-09T02:29:32;94564.78;;;4.18;100.00
55590;BME280;41452;42.780;23.116;2023-04-09T02:31:57;94544.66;;;4.05;100.00
55590;BME280;41452;42.780;23.116;2023-04-09T02:34:23;94562.00;;;4.19;100.00
55590;BME280;41452;42.780;23.116;2023-04-09T02:36:49;94536.97;;;3.97;100.00
55590;BME280;41452;42.780;23.116;2023-04-09T02:39:14;94569.72;;;4.13;100.00
55590;BME280;41452;42.780;23.116;2023-04-09T02:41:40;94540.28;;;3.91;100.00
55590;BME280;41452;42.780;23.116;2023-04-09T02:44:06;94496.72;;;3.71;100.00
55590;BME280;41452;42.780;23.116;2023-04-09T02:46:31;94528.03;;;3.85;100.00
55590;BME280;41452;42.780;23.116;2023-04-09T02:48:57;94533.59;;;3.81;100.00
55590;BME280;41452;42.780;23.116;2023-04-09T02:51:22;94561.41;;;4.03;100.00
55590;BME280;41452;42.780;23.116;2023-04-09T02:53:47;94555.41;;;4.02;100.00
55590;BME280;41452;42.780;23.116;2023-04-09T02:56:13;94551.63;;;4.05;100.00
55590;BME280;41452;42.780;23.116;2023-04-09T02:58:38;94554.66;;;4.08;100.00
55590;BME280;41452;42.780;23.116;2023-04-09T03:01:04;94523.81;;;3.84;100.00
55590;BME280;41452;42.780;23.116;2023-04-09T03:03:29;94557.25;;;4.08;100.00
55590;BME280;41452;42.780;23.116;2023-04-09T03:05:55;94554.03;;;4.06;100.00
55590;BME280;41452;42.780;23.116;2023-04-09T03:08:21;94531.75;;;3.97;100.00
55590;BME280;41452;42.780;23.116;2023-04-09T03:10:47;94556.53;;;4.14;100.00
55590;BME280;41452;42.780;23.116;2023-04-09T03:13:12;94518.50;;;3.92;100.00
55590;BME280;41452;42.780;23.116;2023-04-09T03:15:37;94559.38;;;4.19;100.00
55590;BME280;41452;42.780;23.116;2023-04-09T03:18:03;94553.19;;;4.21;100.00
55590;BME280;41452;42.780;23.116;2023-04-09T03:20:28;94518.78;;;3.97;100.00
55590;BME280;41452;42.780;23.116;2023-04-09T03:22:53;94553.94;;;4.14;100.00
55590;BME280;41452;42.780;23.116;2023-04-09T03:25:19;94551.88;;;4.10;100.00
55590;BME280;41452;42.780;23.116;2023-04-09T03:27:45;94555.78;;;3.99;100.00
55590;BME280;41452;42.780;23.116;2023-04-09T03:30:11;94545.47;;;3.91;100.00
55590;BME280;41452;42.780;23.116;2023-04-09T03:32:36;94549.19;;;3.81;100.00
55590;BME280;41452;42.780;23.116;2023-04-09T03:35:02;94541.69;;;3.72;100.00
55590;BME280;41452;42.780;23.116;2023-04-09T03:37:27;94548.56;;;3.79;100.00
55590;BME280;41452;42.780;23.116;2023-04-09T03:39:53;94546.31;;;3.76;100.00
55590;BME280;41452;42.780;23.116;2023-04-09T03:42:18;94543.03;;;3.68;100.00
55590;BME280;41452;42.780;23.116;2023-04-09T03:44:43;94548.22;;;3.68;100.00
55590;BME280;41452;42.780;23.116;2023-04-09T03:47:09;94554.84;;;3.70;100.00
55590;BME280;41452;42.780;23.116;2023-04-09T03:49:34;94557.56;;;3.62;100.00
55590;BME280;41452;42.780;23.116;2023-04-09T03:52:00;94564.63;;;3.68;100.00
55590;BME280;41452;42.780;23.116;2023-04-09T03:54:29;94533.41;;;3.47;100.00
55590;BME280;41452;42.780;23.116;2023-04-09T03:56:54;94547.63;;;3.51;100.00
55590;BME280;41452;42.780;23.116;2023-04-09T03:59:20;94560.09;;;3.55;100.00
55590;BME280;41452;42.780;23.116;2023-04-09T04:01:46;94554.81;;;3.49;100.00
55590;BME280;41452;42.780;23.116;2023-04-09T04:04:12;94561.25;;;3.53;100.00
55590;BME280;41452;42.780;23.116;2023-04-09T04:06:37;94557.66;;;3.54;100.00
55590;BME280;41452;42.780;23.116;2023-04-09T04:09:02;94567.59;;;3.65;100.00
55590;BME280;41452;42.780;23.116;2023-04-09T04:11:28;94570.53;;;3.62;100.00
55590;BME280;41452;42.780;23.116;2023-04-09T04:13:54;94552.66;;;3.52;100.00
55590;BME280;41452;42.780;23.116;2023-04-09T04:16:20;94572.50;;;3.60;100.00
55590;BME280;41452;42.780;23.116;2023-04-09T04:18:46;94553.63;;;3.51;100.00
55590;BME280;41452;42.780;23.116;2023-04-09T04:21:15;94566.88;;;3.56;100.00
55590;BME280;41452;42.780;23.116;2023-04-09T04:23:40;94555.59;;;3.49;100.00
55590;BME280;41452;42.780;23.116;2023-04-09T04:26:09;94562.50;;;3.42;100.00
55590;BME280;41452;42.780;23.116;2023-04-09T04:28:38;94571.97;;;3.50;100.00
55590;BME280;41452;42.780;23.116;2023-04-09T04:31:08;94569.22;;;3.51;100.00
55590;BME280;41452;42.780;23.116;2023-04-09T04:33:35;94557.50;;;3.40;100.00
55590;BME280;41452;42.780;23.116;2023-04-09T04:36:08;94567.16;;;3.47;100.00
55590;BME280;41452;42.780;23.116;2023-04-09T04:38:34;94576.47;;;3.56;100.00
55590;BME280;41452;42.780;23.116;2023-04-09T04:41:00;94578.44;;;3.54;100.00
55590;BME280;41452;42.780;23.116;2023-04-09T04:43:25;94576.47;;;3.56;100.00
55590;BME280;41452;42.780;23.116;2023-04-09T04:45:51;94579.50;;;3.59;100.00
55590;BME280;41452;42.780;23.116;2023-04-09T04:48:16;94550.59;;;3.48;100.00
55590;BME280;41452;42.780;23.116;2023-04-09T04:50:41;94574.94;;;3.61;100.00
55590;BME280;41452;42.780;23.116;2023-04-09T04:53:07;94578.78;;;3.66;100.00
55590;BME280;41452;42.780;23.116;2023-04-09T04:55:35;94555.50;;;3.57;100.00
55590;BME280;41452;42.780;23.116;2023-04-09T04:58:01;94584.31;;;3.77;100.00
55590;BME280;41452;42.780;23.116;2023-04-09T05:00:26;94584.31;;;3.77;100.00
55590;BME280;41452;42.780;23.116;2023-04-09T05:02:52;94582.78;;;3.83;100.00
55590;BME280;41452;42.780;23.116;2023-04-09T05:05:17;94549.31;;;3.73;100.00
55590;BME280;41452;42.780;23.116;2023-04-09T05:07:42;94583.84;;;3.89;100.00
55590;BME280;41452;42.780;23.116;2023-04-09T05:10:08;94580.34;;;3.96;100.00
55590;BME280;41452;42.780;23.116;2023-04-09T05:12:33;94535.94;;;3.76;100.00
55590;BME280;41452;42.780;23.116;2023-04-09T05:14:59;94573.72;;;4.15;100.00
55590;BME280;41452;42.780;23.116;2023-04-09T05:17:24;94586.63;;;4.24;100.00
55590;BME280;41452;42.780;23.116;2023-04-09T05:19:51;94583.03;;;4.25;100.00
55590;BME280;41452;42.780;23.116;2023-04-09T05:22:16;94584.19;;;4.44;100.00
55590;BME280;41452;42.780;23.116;2023-04-09T05:24:42;94542.94;;;4.12;100.00
55590;BME280;41452;42.780;23.116;2023-04-09T05:27:07;94582.03;;;4.47;100.00
55590;BME280;41452;42.780;23.116;2023-04-09T05:29:33;94576.41;;;4.44;100.00
55590;BME280;41452;42.780;23.116;2023-04-09T05:31:58;94555.91;;;4.34;100.00
55590;BME280;41452;42.780;23.116;2023-04-09T05:34:23;94578.69;;;4.53;100.00
55590;BME280;41452;42.780;23.116;2023-04-09T05:36:49;94588.34;;;4.60;100.00
55590;BME280;41452;42.780;23.116;2023-04-09T05:39:14;94582.34;;;4.59;100.00
55590;BME280;41452;42.780;23.116;2023-04-09T05:41:40;94585.56;;;4.61;100.00
55590;BME280;41452;42.780;23.116;2023-04-09T05:44:06;94588.41;;;4.66;100.00
55590;BME280;41452;42.780;23.116;2023-04-09T05:46:31;94587.66;;;4.72;100.00
55590;BME280;41452;42.780;23.116;2023-04-09T05:48:56;94591.06;;;4.73;100.00
55590;BME280;41452;42.780;23.116;2023-04-09T05:51:22;94565.53;;;4.62;100.00
55590;BME280;41452;42.780;23.116;2023-04-09T05:53:47;94592.91;;;4.79;100.00
55590;BME280;41452;42.780;23.116;2023-04-09T05:56:13;94591.78;;;4.88;100.00
55590;BME280;41452;42.780;23.116;2023-04-09T05:58:39;94585.03;;;4.94;100.00
55590;BME280;41452;42.780;23.116;2023-04-09T06:01:05;94579.63;;;4.95;100.00
55590;BME280;41452;42.780;23.116;2023-04-09T06:03:30;94554.53;;;4.88;100.00
55590;BME280;41452;42.780;23.116;2023-04-09T06:05:55;94584.00;;;5.23;100.00
55590;BME280;41452;42.780;23.116;2023-04-09T06:08:21;94591.88;;;5.30;100.00
55590;BME280;41452;42.780;23.116;2023-04-09T06:10:46;94587.31;;;5.39;100.00
55590;BME280;41452;42.780;23.116;2023-04-09T06:13:12;94556.81;;;5.32;100.00
55590;BME280;41452;42.780;23.116;2023-04-09T06:15:37;94581.59;;;5.57;100.00
55590;BME280;41452;42.780;23.116;2023-04-09T06:18:03;94554.81;;;5.34;100.00
55590;BME280;41452;42.780;23.116;2023-04-09T06:20:29;94594.81;;;5.55;100.00
55590;BME280;41452;42.780;23.116;2023-04-09T06:22:54;94579.78;;;5.57;100.00
55590;BME280;41452;42.780;23.116;2023-04-09T06:25:20;94572.16;;;5.49;100.00
55590;BME280;41452;42.780;23.116;2023-04-09T06:27:45;94595.84;;;5.61;100.00
55590;BME280;41452;42.780;23.116;2023-04-09T06:30:11;94579.78;;;5.57;100.00
55590;BME280;41452;42.780;23.116;2023-04-09T06:32:36;94585.00;;;5.57;100.00
55590;BME280;41452;42.780;23.116;2023-04-09T06:35:02;94599.09;;;5.69;100.00
55590;BME280;41452;42.780;23.116;2023-04-09T06:37:28;94588.63;;;5.63;100.00
55590;BME280;41452;42.780;23.116;2023-04-09T06:39:53;94596.34;;;5.78;100.00
55590;BME280;41452;42.780;23.116;2023-04-09T06:42:18;94594.34;;;5.80;100.00
55590;BME280;41452;42.780;23.116;2023-04-09T06:44:45;94601.97;;;5.81;100.00
55590;BME280;41452;42.780;23.116;2023-04-09T06:47:10;94562.38;;;5.64;100.00
55590;BME280;41452;42.780;23.116;2023-04-09T06:49:36;94599.84;;;5.98;100.00
55590;BME280;41452;42.780;23.116;2023-04-09T06:52:02;94602.84;;;6.02;100.00
55590;BME280;41452;42.780;23.116;2023-04-09T06:54:28;94562.28;;;5.86;100.00
55590;BME280;41452;42.780;23.116;2023-04-09T06:56:53;94608.16;;;6.22;100.00
55590;BME280;41452;42.780;23.116;2023-04-09T06:59:18;94563.97;;;6.07;100.00
55590;BME280;41452;42.780;23.116;2023-04-09T07:01:44;94604.59;;;6.36;100.00
55590;BME280;41452;42.780;23.116;2023-04-09T07:04:10;94602.56;;;6.38;100.00
55590;BME280;41452;42.780;23.116;2023-04-09T07:06:35;94576.28;;;6.33;100.00
55590;BME280;41452;42.780;23.116;2023-04-09T07:09:01;94592.75;;;6.47;100.00
55590;BME280;41452;42.780;23.116;2023-04-09T07:11:26;94610.44;;;6.58;100.00
55590;BME280;41452;42.780;23.116;2023-04-09T07:13:51;94606.41;;;6.49;100.00
55590;BME280;41452;42.780;23.116;2023-04-09T07:16:17;94605.78;;;6.54;100.00
55590;BME280;41452;42.780;23.116;2023-04-09T07:18:42;94603.81;;;6.62;100.00
55590;BME280;41452;42.780;23.116;2023-04-09T07:21:07;94588.56;;;6.66;100.00
55590;BME280;41452;42.780;23.116;2023-04-09T07:23:33;94570.69;;;6.63;100.00
55590;BME280;41452;42.780;23.116;2023-04-09T07:26:04;94604.44;;;6.98;100.00
55590;BME280;41452;42.780;23.116;2023-04-09T07:28:29;94604.03;;;7.14;100.00
55590;BME280;41452;42.780;23.116;2023-04-09T07:30:55;94586.16;;;6.98;100.00
55590;BME280;41452;42.780;23.116;2023-04-09T07:33:20;94613.47;;;6.95;100.00
55590;BME280;41452;42.780;23.116;2023-04-09T07:35:46;94613.88;;;6.85;100.00
55590;BME280;41452;42.780;23.116;2023-04-09T07:38:11;94617.09;;;6.81;100.00
55590;BME280;41452;42.780;23.116;2023-04-09T07:40:37;94586.16;;;6.58;100.00
55590;BME280;41452;42.780;23.116;2023-04-09T07:43:03;94587.75;;;6.45;100.00
55590;BME280;41452;42.780;23.116;2023-04-09T07:45:28;94586.94;;;6.58;100.00
55590;BME280;41452;42.780;23.116;2023-04-09T07:47:53;94599.00;;;6.66;100.00
55590;BME280;41452;42.780;23.116;2023-04-09T07:50:19;94621.09;;;6.90;100.00
55590;BME280;41452;42.780;23.116;2023-04-09T07:52:45;94608.25;;;6.95;100.00
55590;BME280;41452;42.780;23.116;2023-04-09T07:55:10;94619.91;;;7.13;100.00
55590;BME280;41452;42.780;23.116;2023-04-09T07:57:35;94598.81;;;7.08;100.00
55590;BME280;41452;42.780;23.116;2023-04-09T08:00:01;94619.09;;;7.26;100.00
55590;BME280;41452;42.780;23.116;2023-04-09T08:02:27;94602.22;;;7.21;100.00
55590;BME280;41452;42.780;23.116;2023-04-09T08:04:53;94612.28;;;7.11;100.00
55590;BME280;41452;42.780;23.116;2023-04-09T08:07:18;94618.50;;;7.23;100.00
55590;BME280;41452;42.780;23.116;2023-04-09T08:09:44;94624.72;;;7.36;100.00
55590;BME280;41452;42.780;23.116;2023-04-09T08:12:10;94619.06;;;7.52;100.00
55590;BME280;41452;42.780;23.116;2023-04-09T08:14:35;94592.53;;;7.42;100.00
55590;BME280;41452;42.780;23.116;2023-04-09T08:17:01;94607.78;;;7.58;100.00
55590;BME280;41452;42.780;23.116;2023-04-09T08:19:26;94609.59;;;7.65;100.00
55590;BME280;41452;42.780;23.116;2023-04-09T08:21:51;94599.94;;;7.58;100.00
55590;BME280;41452;42.780;23.116;2023-04-09T08:24:17;94624.66;;;7.69;100.00
55590;BME280;41452;42.780;23.116;2023-04-09T08:26:43;94623.63;;;7.70;100.00
55590;BME280;41452;42.780;23.116;2023-04-09T08:29:10;94605.53;;;7.69;100.00
55590;BME280;41452;42.780;23.116;2023-04-09T08:31:36;94615.00;;;7.76;100.00
55590;BME280;41452;42.780;23.116;2023-04-09T08:34:02;94606.97;;;7.65;100.00
55590;BME280;41452;42.780;23.116;2023-04-09T08:36:27;94621.81;;;7.71;100.00
55590;BME280;41452;42.780;23.116;2023-04-09T08:38:53;94583.66;;;7.56;100.00
55590;BME280;41452;42.780;23.116;2023-04-09T08:41:24;94610.09;;;7.93;100.00
55590;BME280;41452;42.780;23.116;2023-04-09T08:43:50;94592.25;;;7.84;100.00
55590;BME280;41452;42.780;23.116;2023-04-09T08:46:18;94607.25;;;8.02;99.48
55590;BME280;41452;42.780;23.116;2023-04-09T08:48:44;94613.25;;;8.15;100.00
55590;BME280;41452;42.780;23.116;2023-04-09T08:51:14;94614.00;;;8.23;100.00
55590;BME280;41452;42.780;23.116;2023-04-09T08:53:47;94612.97;;;8.30;99.92
55590;BME280;41452;42.780;23.116;2023-04-09T08:56:14;94587.69;;;8.11;100.00
55590;BME280;41452;42.780;23.116;2023-04-09T08:58:44;94576.66;;;8.02;100.00
55590;BME280;41452;42.780;23.116;2023-04-09T09:01:23;94560.19;;;8.02;100.00
55590;BME280;41452;42.780;23.116;2023-04-09T09:03:56;94608.03;;;8.09;100.00
55590;BME280;41452;42.780;23.116;2023-04-09T09:06:23;94598.44;;;7.96;99.31
55590;BME280;41452;42.780;23.116;2023-04-09T09:09:11;94602.44;;;7.92;100.00
55590;BME280;41452;42.780;23.116;2023-04-09T09:11:41;94593.63;;;7.86;100.00
55590;BME280;41452;42.780;23.116;2023-04-09T09:14:08;94598.44;;;7.96;100.00
55590;BME280;41452;42.780;23.116;2023-04-09T09:16:35;94600.41;;;8.00;100.00
55590;BME280;41452;42.780;23.116;2023-04-09T09:19:05;94597.81;;;7.94;100.00
55590;BME280;41452;42.780;23.116;2023-04-09T09:21:30;94598.59;;;8.01;100.00
55590;BME280;41452;42.780;23.116;2023-04-09T09:23:57;94598.38;;;8.03;100.00
55590;BME280;41452;42.780;23.116;2023-04-09T09:26:26;94596.72;;;8.15;100.00
55590;BME280;41452;42.780;23.116;2023-04-09T09:28:53;94590.84;;;8.26;99.07
55590;BME280;41452;42.780;23.116;2023-04-09T09:31:20;94597.16;;;8.12;100.00
55590;BME280;41452;42.780;23.116;2023-04-09T09:33:47;94582.81;;;8.21;100.00
55590;BME280;41452;42.780;23.116;2023-04-09T09:36:14;94570.72;;;8.20;98.85
55590;BME280;41452;42.780;23.116;2023-04-09T09:38:51;94562.06;;;8.26;97.80
55590;BME280;41452;42.780;23.116;2023-04-09T09:41:18;94579.69;;;8.44;100.00
55590;BME280;41452;42.780;23.116;2023-04-09T09:43:44;94577.66;;;8.46;96.93
55590;BME280;41452;42.780;23.116;2023-04-09T09:46:10;94575.44;;;8.50;96.72
55590;BME280;41452;42.780;23.116;2023-04-09T09:48:36;94569.44;;;8.43;99.36
55590;BME280;41452;42.780;23.116;2023-04-09T09:51:02;94556.91;;;8.51;97.70
55590;BME280;41452;42.780;23.116;2023-04-09T09:53:35;94577.50;;;8.73;99.87
55590;BME280;41452;42.780;23.116;2023-04-09T09:56:01;94581.44;;;8.57;95.12
55590;BME280;41452;42.780;23.116;2023-04-09T09:58:38;94575.97;;;8.59;96.07
55590;BME280;41452;42.780;23.116;2023-04-09T10:01:11;94577.53;;;8.66;96.46
55590;BME280;41452;42.780;23.116;2023-04-09T10:03:37;94579.03;;;8.81;96.75
55590;BME280;41452;42.780;23.116;2023-04-09T10:06:04;94586.91;;;8.81;96.02
55590;BME280;41452;42.780;23.116;2023-04-09T10:08:31;94578.00;;;8.88;95.87
55590;BME280;41452;42.780;23.116;2023-04-09T10:11:01;94570.81;;;9.02;94.25
55590;BME280;41452;42.780;23.116;2023-04-09T10:13:34;94578.56;;;9.16;94.15
55590;BME280;41452;42.780;23.116;2023-04-09T10:16:00;94552.84;;;9.06;94.42
55590;BME280;41452;42.780;23.116;2023-04-09T10:18:27;94569.03;;;9.21;92.58
55590;BME280;41452;42.780;23.116;2023-04-09T10:20:58;94561.06;;;9.09;93.27
55590;BME280;41452;42.780;23.116;2023-04-09T10:23:39;94562.94;;;9.02;92.50
55590;BME280;41452;42.780;23.116;2023-04-09T10:26:05;94564.22;;;8.93;94.28
55590;BME280;41452;42.780;23.116;2023-04-09T10:28:31;94566.22;;;8.72;90.61
55590;BME280;41452;42.780;23.116;2023-04-09T10:30:57;94569.75;;;8.85;92.51
55590;BME280;41452;42.780;23.116;2023-04-09T10:33:24;94569.16;;;8.83;91.97
55590;BME280;41452;42.780;23.116;2023-04-09T10:35:55;94550.72;;;8.71;92.46
55590;BME280;41452;42.780;23.116;2023-04-09T10:38:37;94563.59;;;8.72;93.05
55590;BME280;41452;42.780;23.116;2023-04-09T10:41:13;94546.31;;;8.65;92.67
55590;BME280;41452;42.780;23.116;2023-04-09T10:43:42;94559.97;;;8.73;92.34
55590;BME280;41452;42.780;23.116;2023-04-09T10:46:33;94551.69;;;8.77;93.13
55590;BME280;41452;42.780;23.116;2023-04-09T10:49:08;94557.66;;;8.84;92.35
55590;BME280;41452;42.780;23.116;2023-04-09T10:51:35;94556.06;;;8.83;92.35
55590;BME280;41452;42.780;23.116;2023-04-09T10:54:03;94531.47;;;8.84;92.29
55590;BME280;41452;42.780;23.116;2023-04-09T10:56:28;94548.69;;;8.98;90.48
55590;BME280;41452;42.780;23.116;2023-04-09T10:58:53;94542.84;;;8.96;90.48
55590;BME280;41452;42.780;23.116;2023-04-09T11:01:22;94534.22;;;8.96;92.15
55590;BME280;41452;42.780;23.116;2023-04-09T11:04:07;94537.78;;;9.01;87.26
55590;BME280;41452;42.780;23.116;2023-04-09T11:06:35;94500.47;;;8.81;88.16
55590;BME280;41452;42.780;23.116;2023-04-09T11:09:01;94520.59;;;9.05;87.91
55590;BME280;41452;42.780;23.116;2023-04-09T11:11:27;94530.69;;;9.27;89.22
55590;BME280;41452;42.780;23.116;2023-04-09T11:13:58;94522.97;;;9.32;89.02
55590;BME280;41452;42.780;23.116;2023-04-09T11:16:24;94520.50;;;9.37;88.77
55590;BME280;41452;42.780;23.116;2023-04-09T11:18:49;94511.91;;;9.30;85.41
55590;BME280;41452;42.780;23.116;2023-04-09T11:21:16;94498.81;;;9.30;86.55
55590;BME280;41452;42.780;23.116;2023-04-09T11:23:50;94520.84;;;9.41;86.84
55590;BME280;41452;42.780;23.116;2023-04-09T11:26:16;94525.47;;;9.45;86.83
55590;BME280;41452;42.780;23.116;2023-04-09T11:28:42;94506.53;;;9.43;84.52
55590;BME280;41452;42.780;23.116;2023-04-09T11:31:08;94519.25;;;9.58;86.13
55590;BME280;41452;42.780;23.116;2023-04-09T11:33:33;94509.13;;;9.62;86.21
55590;BME280;41452;42.780;23.116;2023-04-09T11:35:58;94520.56;;;9.67;84.93
55590;BME280;41452;42.780;23.116;2023-04-09T11:38:24;94517.66;;;9.57;83.90
55590;BME280;41452;42.780;23.116;2023-04-09T11:40:49;94507.69;;;9.47;83.89
55590;BME280;41452;42.780;23.116;2023-04-09T11:43:15;94517.97;;;9.49;87.03
55590;BME280;41452;42.780;23.116;2023-04-09T11:45:42;94517.03;;;9.43;91.00
55590;BME280;41452;42.780;23.116;2023-04-09T11:48:07;94522.38;;;9.48;94.26
55590;BME280;41452;42.780;23.116;2023-04-09T11:50:33;94511.47;;;9.51;96.16
55590;BME280;41452;42.780;23.116;2023-04-09T11:52:58;94519.25;;;9.58;98.68
55590;BME280;41452;42.780;23.116;2023-04-09T11:55:28;94511.03;;;9.55;99.18
55590;BME280;41452;42.780;23.116;2023-04-09T11:57:58;94516.84;;;9.57;100.00
55590;BME280;41452;42.780;23.116;2023-04-09T12:00:27;94488.53;;;9.28;100.00
55590;BME280;41452;42.780;23.116;2023-04-09T12:03:03;94510.44;;;9.34;100.00
55590;BME280;41452;42.780;23.116;2023-04-09T12:05:33;94486.22;;;9.20;100.00
55590;BME280;41452;42.780;23.116;2023-04-09T12:08:03;94466.84;;;9.03;100.00
55590;BME280;41452;42.780;23.116;2023-04-09T12:10:32;94506.22;;;9.33;100.00
55590;BME280;41452;42.780;23.116;2023-04-09T12:13:02;94489.94;;;9.31;100.00
55590;BME280;41452;42.780;23.116;2023-04-09T12:15:40;94507.44;;;9.30;100.00
55590;BME280;41452;42.780;23.116;2023-04-09T12:18:09;94505.78;;;9.18;100.00
55590;BME280;41452;42.780;23.116;2023-04-09T12:20:37;94511.16;;;9.23;100.00
55590;BME280;41452;42.780;23.116;2023-04-09T12:23:04;94492.03;;;9.22;100.00
55590;BME280;41452;42.780;23.116;2023-04-09T12:25:35;94498.50;;;9.20;98.77
55590;BME280;41452;42.780;23.116;2023-04-09T12:28:01;94484.66;;;9.12;100.00
55590;BME280;41452;42.780;23.116;2023-04-09T12:30:27;94455.19;;;8.99;100.00
55590;BME280;41452;42.780;23.116;2023-04-09T12:32:53;94475.81;;;9.13;100.00
55590;BME280;41452;42.780;23.116;2023-04-09T12:35:20;94485.34;;;9.26;100.00
55590;BME280;41452;42.780;23.116;2023-04-09T12:37:46;94479.00;;;9.34;100.00
55590;BME280;41452;42.780;23.116;2023-04-09T12:40:11;94490.81;;;9.43;100.00
55590;BME280;41452;42.780;23.116;2023-04-09T12:42:39;94487.72;;;9.46;100.00
55590;BME280;41452;42.780;23.116;2023-04-09T12:45:06;94484.47;;;9.51;100.00
55590;BME280;41452;42.780;23.116;2023-04-09T12:47:32;94489.91;;;9.49;100.00
55590;BME280;41452;42.780;23.116;2023-04-09T12:49:57;94465.25;;;9.39;100.00
55590;BME280;41452;42.780;23.116;2023-04-09T12:52:22;94475.19;;;9.48;100.00
55590;BME280;41452;42.780;23.116;2023-04-09T12:54:49;94475.56;;;9.52;100.00
55590;BME280;41452;42.780;23.116;2023-04-09T12:57:15;94482.41;;;9.53;100.00
55590;BME280;41452;42.780;23.116;2023-04-09T12:59:40;94448.94;;;9.37;100.00
55590;BME280;41452;42.780;23.116;2023-04-09T13:02:06;94466.09;;;9.51;100.00
55590;BME280;41452;42.780;23.116;2023-04-09T13:04:31;94469.38;;;9.46;100.00
55590;BME280;41452;42.780;23.116;2023-04-09T13:06:57;94464.94;;;9.47;100.00